VTSE/CJM METAR and TAF weather

Enter ICAO airport designator
Station Type Date Time Source
VTSE METAR 2019/10/22 11:00 UTC NOAA

VTSE 221100Z VRB01KT 9999 FEW020 28/27 Q1007 NOSIG


Station Type Date Time Source
VTSE Decoded METAR 2019/10/22 11:00 UTC NOAA

Station name not available
Oct 22, 2019 - 07:00 AM EDT / 2019.10.22 1100 UTC
Wind: Variable at 1 MPH (1 KT):0
Visibility: greater than 7 mile(s):0
Sky conditions: mostly clear
Temperature: 82 F (28 C)
Dew Point: 80 F (27 C)
Relative Humidity: 94%
Pressure (altimeter): 29.74 in. Hg (1007 hPa)
ob: VTSE 221100Z VRB01KT 9999 FEW020 28/27 Q1007 NOSIG
cycle: 11

Station Type Date Time Source
VTSE TAF 2019/10/22 12:00 UTC NOAA

TAF VTSE 221100Z 2212/2312 VRB02KT 9999 FEW020 SCT100

Example: see airport list